Time;durP1;ratioP1;P1;durP2;ratioP2;P2;SDS_P1;SDS_P2;PMS_P1;PMS_P2;Temp;Humidity;BMP_temperature;BMP_pressure;BME280_temperature;BME280_humidity;BME280_pressure;Samples;Min_cycle;Max_cycle;Signal;HPM_P1;HPM_P2
2023/08/28 00:01:09;;;;;;;10.43;7.38;;;;;;;;;;6246048;23;20445;-44
2023/08/28 00:03:35;;;;;;;8.43;7.43;;;;;;;;;;6245577;23;20024;-44
2023/08/28 00:06:01;;;;;;;10.27;7.43;;;;;;;;;;6245868;23;20020;-42
2023/08/28 00:08:28;;;;;;;9.93;8.40;;;;;;;;;;6245875;23;20046;-42
2023/08/28 00:10:54;;;;;;;9.52;8.48;;;;;;;;;;6219369;23;20027;-42
2023/08/28 00:13:20;;;;;;;10.38;7.93;;;;;;;;;;6245946;23;20024;-41
2023/08/28 00:15:46;;;;;;;9.25;8.35;;;;;;;;;;6245888;23;20015;-44
2023/08/28 00:18:12;;;;;;;9.57;8.60;;;;;;;;;;6218721;23;20467;-41
2023/08/28 00:20:38;;;;;;;9.93;8.55;;;;;;;;;;6245925;23;20336;-42
2023/08/28 00:23:04;;;;;;;11.75;8.73;;;;;;;;;;6247330;23;20361;-43
2023/08/28 00:25:30;;;;;;;9.77;8.93;;;;;;;;;;6247804;23;20092;-42
2023/08/28 00:27:56;;;;;;;9.82;8.88;;;;;;;;;;6247412;23;20389;-41
2023/08/28 00:30:22;;;;;;;9.13;8.32;;;;;;;;;;6247924;23;20049;-41
2023/08/28 00:32:49;;;;;;;10.13;9.13;;;;;;;;;;6247337;23;20020;-42
2023/08/28 00:35:15;;;;;;;11.95;9.98;;;;;;;;;;6247681;23;20517;-41
2023/08/28 00:37:41;;;;;;;10.90;9.88;;;;;;;;;;6247828;23;20012;-42
2023/08/28 00:40:07;;;;;;;14.32;9.45;;;;;;;;;;6247652;23;20070;-41
2023/08/28 00:42:33;;;;;;;11.07;10.10;;;;;;;;;;6220964;23;20051;-42
2023/08/28 00:44:59;;;;;;;10.73;9.63;;;;;;;;;;6247750;23;20027;-43
2023/08/28 00:47:26;;;;;;;10.90;9.80;;;;;;;;;;6247584;23;20008;-41
2023/08/28 00:49:52;;;;;;;11.00;9.82;;;;;;;;;;6195445;23;20394;-43
2023/08/28 00:52:18;;;;;;;10.57;9.68;;;;;;;;;;6220549;23;20506;-43
2023/08/28 00:54:44;;;;;;;11.13;9.98;;;;;;;;;;6247470;23;20013;-42
2023/08/28 00:57:11;;;;;;;11.05;10.15;;;;;;;;;;6220291;23;20020;-42
2023/08/28 00:59:37;;;;;;;13.75;11.07;;;;;;;;;;6247473;23;20099;-42
2023/08/28 01:02:06;;;;;;;12.05;10.23;;;;;;;;;;6247405;23;20065;-44
2023/08/28 01:04:32;;;;;;;11.95;10.45;;;;;;;;;;6246927;23;20479;-42
2023/08/28 01:07:01;;;;;;;12.98;10.43;;;;;;;;;;6247480;23;20031;-42
2023/08/28 01:09:36;;;;;;;13.65;10.77;;;;;;;;;;6220891;23;20032;-44
2023/08/28 01:12:13;;;;;;;13.73;11.35;;;;;;;;;;6247508;23;20012;-46
2023/08/28 01:15:02;;;;;;;12.75;11.48;;;;;;;;;;6247285;23;20066;-43
2023/08/28 01:17:29;;;;;;;14.60;12.00;;;;;;;;;;6247112;23;20020;-42
2023/08/28 01:19:56;;;;;;;12.45;11.35;;;;;;;;;;6220177;23;20027;-42
2023/08/28 01:22:32;;;;;;;14.77;12.10;;;;;;;;;;6220144;23;20088;-44
2023/08/28 01:25:12;;;;;;;13.98;12.57;;;;;;;;;;6247052;23;20483;-41
2023/08/28 01:27:41;;;;;;;15.43;13.93;;;;;;;;;;6247381;23;20020;-43
2023/08/28 01:30:09;;;;;;;17.65;14.15;;;;;;;;;;6220012;23;20467;-42
2023/08/28 01:32:36;;;;;;;17.58;14.70;;;;;;;;;;6247124;23;20091;-41
2023/08/28 01:35:03;;;;;;;15.50;13.93;;;;;;;;;;6246672;23;20358;-44
2023/08/28 01:37:35;;;;;;;18.02;13.82;;;;;;;;;;6247072;23;20023;-42
2023/08/28 01:40:05;;;;;;;16.10;13.15;;;;;;;;;;6246938;23;20341;-43
2023/08/28 01:42:33;;;;;;;14.95;13.45;;;;;;;;;;6247248;23;20314;-43
2023/08/28 01:45:00;;;;;;;17.77;14.15;;;;;;;;;;6247317;23;20016;-41
2023/08/28 01:47:27;;;;;;;15.20;13.60;;;;;;;;;;6247276;23;20019;-42
2023/08/28 01:49:53;;;;;;;17.48;14.18;;;;;;;;;;6246959;23;20023;-43
2023/08/28 01:52:19;;;;;;;16.00;14.50;;;;;;;;;;6247089;23;20016;-43
2023/08/28 01:54:46;;;;;;;17.20;14.02;;;;;;;;;;6246610;23;20348;-42
2023/08/28 01:57:12;;;;;;;15.10;13.60;;;;;;;;;;6219839;23;20020;-42
2023/08/28 01:59:38;;;;;;;17.13;14.32;;;;;;;;;;6246847;23;20027;-44
2023/08/28 02:02:04;;;;;;;16.10;14.10;;;;;;;;;;6246964;23;20012;-44
2023/08/28 02:04:30;;;;;;;14.60;12.70;;;;;;;;;;6246294;23;20016;-42
2023/08/28 02:06:56;;;;;;;16.38;12.70;;;;;;;;;;6246951;23;20083;-42
2023/08/28 02:09:22;;;;;;;14.82;13.40;;;;;;;;;;6195141;23;20012;-41
2023/08/28 02:11:49;;;;;;;17.65;13.70;;;;;;;;;;6220154;23;20016;-43
2023/08/28 02:14:15;;;;;;;13.45;12.15;;;;;;;;;;6246718;23;20020;-43
2023/08/28 02:16:41;;;;;;;15.25;13.65;;;;;;;;;;6246830;23;20087;-44
2023/08/28 02:19:07;;;;;;;15.38;13.80;;;;;;;;;;6246740;23;20021;-42
2023/08/28 02:21:34;;;;;;;15.38;12.68;;;;;;;;;;6246721;23;20016;-43
2023/08/28 02:24:00;;;;;;;15.70;13.93;;;;;;;;;;6246781;23;20388;-42
2023/08/28 02:26:26;;;;;;;14.95;13.45;;;;;;;;;;6246763;23;20023;-42
2023/08/28 02:28:52;;;;;;;16.00;13.60;;;;;;;;;;6246641;23;20344;-43
2023/08/28 02:31:18;;;;;;;15.13;13.15;;;;;;;;;;6246725;23;20321;-43
2023/08/28 02:33:44;;;;;;;15.18;13.68;;;;;;;;;;6194245;23;20444;-41
2023/08/28 02:36:10;;;;;;;15.95;13.57;;;;;;;;;;6246296;23;20031;-42
2023/08/28 02:38:36;;;;;;;16.95;15.15;;;;;;;;;;6246555;23;20016;-42
2023/08/28 02:41:09;;;;;;;19.08;13.88;;;;;;;;;;6219873;23;20019;-45
2023/08/28 02:43:38;;;;;;;17.48;14.98;;;;;;;;;;6246570;23;20078;-42
2023/08/28 02:46:04;;;;;;;19.23;14.93;;;;;;;;;;6219021;23;20024;-41
2023/08/28 02:48:30;;;;;;;15.63;14.02;;;;;;;;;;6246410;23;20058;-42
2023/08/28 02:50:56;;;;;;;14.48;13.18;;;;;;;;;;6246432;23;20016;-42
2023/08/28 02:53:22;;;;;;;14.65;13.10;;;;;;;;;;6246678;23;20352;-43
2023/08/28 02:56:06;;;;;;;14.50;12.95;;;;;;;;;;6246032;23;20015;-44
2023/08/28 02:58:32;;;;;;;15.90;13.23;;;;;;;;;;6246312;23;20031;-42
2023/08/28 03:00:58;;;;;;;17.45;13.90;;;;;;;;;;6246358;23;20440;-42
2023/08/28 03:03:24;;;;;;;14.02;12.70;;;;;;;;;;6245972;23;20020;-42
2023/08/28 03:05:50;;;;;;;15.38;13.75;;;;;;;;;;6246405;23;20016;-45
2023/08/28 03:08:16;;;;;;;14.88;13.30;;;;;;;;;;6246331;23;20390;-45
2023/08/28 03:10:42;;;;;;;14.52;12.55;;;;;;;;;;6246270;23;20055;-44
2023/08/28 03:13:08;;;;;;;15.38;13.20;;;;;;;;;;6246334;23;20155;-42
2023/08/28 03:15:34;;;;;;;15.00;12.90;;;;;;;;;;6218974;23;20409;-41
2023/08/28 03:18:01;;;;;;;15.45;13.85;;;;;;;;;;6219255;23;20096;-43
2023/08/28 03:20:27;;;;;;;15.88;13.45;;;;;;;;;;6246130;23;20039;-42
2023/08/28 03:22:55;;;;;;;16.02;13.45;;;;;;;;;;6246163;23;20091;-42
2023/08/28 03:25:21;;;;;;;16.35;14.07;;;;;;;;;;6244266;23;20016;-43
2023/08/28 03:27:47;;;;;;;15.45;13.65;;;;;;;;;;6245961;23;20016;-43
2023/08/28 03:30:14;;;;;;;14.35;12.85;;;;;;;;;;6246107;23;20027;-42
2023/08/28 03:32:40;;;;;;;14.35;12.93;;;;;;;;;;6245780;23;20479;-42
2023/08/28 03:35:06;;;;;;;14.85;13.32;;;;;;;;;;6245955;23;20012;-42
2023/08/28 03:37:32;;;;;;;14.30;12.80;;;;;;;;;;6245819;23;20445;-44
2023/08/28 03:39:58;;;;;;;13.18;11.95;;;;;;;;;;6245688;23;20016;-42
2023/08/28 03:42:24;;;;;;;14.52;12.30;;;;;;;;;;6245850;23;20012;-44
2023/08/28 03:44:50;;;;;;;14.30;12.80;;;;;;;;;;6246012;23;20139;-43
2023/08/28 03:47:16;;;;;;;13.23;11.93;;;;;;;;;;6245976;23;20083;-42
2023/08/28 03:49:42;;;;;;;14.32;12.82;;;;;;;;;;6218832;23;20388;-44
2023/08/28 03:52:07;;;;;;;14.60;13.13;;;11.20;99.90;;;;;;6245874;23;20016;-41
2023/08/28 03:54:33;;;;;;;13.75;12.43;;;11.10;99.90;;;;;;6245512;23;20389;-43
2023/08/28 03:56:59;;;;;;;15.63;11.85;;;11.10;99.90;;;;;;6246513;23;20071;-43
2023/08/28 03:59:24;;;;;;;13.75;12.35;;;11.00;99.90;;;;;;6247659;23;20083;-42
2023/08/28 04:01:51;;;;;;;13.85;12.45;;;11.00;99.90;;;;;;6248038;23;20028;-41
2023/08/28 04:04:16;;;;;;;14.32;12.77;;;11.00;99.90;;;;;;6247823;23;20039;-41
2023/08/28 04:06:42;;;;;;;15.43;12.43;;;11.00;99.90;;;;;;6247961;23;20016;-43
2023/08/28 04:09:08;;;;;;;14.38;12.82;;;11.00;99.90;;;;;;6247855;23;20012;-42
2023/08/28 04:11:33;;;;;;;19.42;12.40;;;11.00;99.90;;;;;;6220555;23;20091;-43
2023/08/28 04:13:59;;;;;;;15.52;12.50;;;11.10;99.90;;;;;;6247663;23;20083;-41
2023/08/28 04:16:25;;;;;;;16.92;13.80;;;11.10;99.90;;;;;;6247816;23;20392;-41
2023/08/28 04:18:50;;;;;;;16.17;12.45;;;11.00;99.90;;;;;;6220689;23;20352;-41
2023/08/28 04:21:16;;;;;;;14.57;12.95;;;11.10;99.90;;;;;;6247878;23;20008;-42
2023/08/28 04:23:42;;;;;;;17.88;15.20;;;11.10;99.90;;;;;;6247373;23;20077;-43
2023/08/28 04:26:07;;;;;;;18.63;15.68;;;11.10;99.90;;;;;;6247681;23;20047;-41
2023/08/28 04:28:33;;;;;;;17.13;15.07;;;11.10;99.90;;;;;;6247792;23;20491;-42
2023/08/28 04:30:58;;;;;;;17.17;15.38;;;11.10;99.90;;;;;;6247582;23;20016;-41
2023/08/28 04:33:24;;;;;;;16.90;15.10;;;11.10;99.90;;;;;;6247708;23;20051;-45
2023/08/28 04:35:50;;;;;;;17.48;15.40;;;11.10;99.90;;;;;;6247239;23;20095;-41
2023/08/28 04:38:15;;;;;;;19.58;16.08;;;11.10;99.90;;;;;;6220937;23;20023;-44
2023/08/28 04:40:42;;;;;;;18.92;15.48;;;11.10;99.90;;;;;;6247568;23;20344;-42
2023/08/28 04:43:07;;;;;;;18.67;15.07;;;11.10;99.90;;;;;;6247746;23;20071;-41
2023/08/28 04:45:33;;;;;;;19.45;16.35;;;11.10;99.90;;;;;;6247598;23;20016;-43
2023/08/28 04:47:59;;;;;;;17.88;15.98;;;11.10;99.90;;;;;;6220425;23;20053;-42
2023/08/28 04:50:24;;;;;;;20.60;16.10;;;11.10;99.90;;;;;;6247779;23;20054;-41
2023/08/28 04:52:50;;;;;;;17.67;15.88;;;11.10;99.90;;;;;;6220516;23;20432;-40
2023/08/28 04:55:15;;;;;;;21.85;17.35;;;11.20;99.90;;;;;;6247418;23;20012;-42
2023/08/28 04:57:41;;;;;;;21.35;15.85;;;11.20;99.90;;;;;;6247552;23;20012;-41
2023/08/28 05:00:07;;;;;;;22.42;15.88;;;11.30;99.90;;;;;;6247546;23;20462;-45
2023/08/28 05:02:33;;;;;;;21.02;16.35;;;11.20;99.90;;;;;;6247406;23;20062;-43
2023/08/28 05:04:59;;;;;;;19.23;15.63;;;11.30;99.90;;;;;;6246739;23;20024;-40
2023/08/28 05:07:24;;;;;;;20.75;16.58;;;11.40;99.90;;;;;;6246791;23;20024;-43
2023/08/28 05:09:50;;;;;;;19.60;17.20;;;11.30;99.90;;;;;;6220057;23;20043;-42
2023/08/28 05:12:15;;;;;;;20.52;16.58;;;11.40;99.90;;;;;;6247297;23;20077;-41
2023/08/28 05:14:41;;;;;;;18.98;16.98;;;11.40;99.90;;;;;;6247332;23;20059;-42
2023/08/28 05:17:06;;;;;;;20.25;16.75;;;11.50;99.90;;;;;;6246877;23;20344;-41
2023/08/28 05:19:32;;;;;;;19.83;16.30;;;11.50;99.90;;;;;;6247396;23;20016;-42
2023/08/28 05:21:58;;;;;;;17.58;15.73;;;11.50;99.90;;;;;;6247295;23;20012;-40
2023/08/28 05:24:23;;;;;;;19.10;16.27;;;11.60;99.90;;;;;;6246884;23;20012;-42
2023/08/28 05:26:49;;;;;;;16.27;14.63;;;11.50;99.90;;;;;;6220119;23;20062;-42
2023/08/28 05:29:14;;;;;;;18.05;15.15;;;11.60;99.90;;;;;;6247387;23;20020;-41
2023/08/28 05:31:40;;;;;;;16.20;14.70;;;11.70;99.90;;;;;;6247407;23;20012;-43
2023/08/28 05:34:06;;;;;;;15.80;14.30;;;11.70;99.90;;;;;;6247156;23;20062;-41
2023/08/28 05:36:31;;;;;;;15.57;13.98;;;11.70;99.90;;;;;;6247060;23;20083;-43
2023/08/28 05:38:57;;;;;;;15.93;14.38;;;11.70;99.90;;;;;;6246722;23;20082;-43
2023/08/28 05:41:23;;;;;;;16.63;15.13;;;11.90;99.90;;;;;;6246988;23;20059;-43
2023/08/28 05:43:49;;;;;;;16.23;14.63;;;11.80;99.90;;;;;;6220037;23;20016;-41
2023/08/28 05:46:14;;;;;;;16.10;14.40;;;11.90;99.90;;;;;;6246730;23;20024;-41
2023/08/28 05:48:40;;;;;;;16.42;14.80;;;12.10;99.90;;;;;;6247048;23;20019;-42
2023/08/28 05:51:05;;;;;;;19.67;17.25;;;12.20;99.90;;;;;;6246979;23;20024;-43
2023/08/28 05:53:32;;;;;;;21.58;19.25;;;13.30;99.90;;;;;;6246976;23;20012;-44
2023/08/28 05:55:58;;;;;;;22.17;19.85;;;14.70;99.90;;;;;;6246803;23;20028;-42
2023/08/28 05:58:23;;;;;;;22.38;19.33;;;15.80;99.90;;;;;;6247078;23;20059;-41
2023/08/28 06:00:49;;;;;;;19.38;17.40;;;17.00;99.90;;;;;;6247052;23;20015;-45
2023/08/28 06:03:14;;;;;;;15.57;14.18;;;18.10;99.90;;;;;;6247080;23;20352;-43
2023/08/28 06:05:40;;;;;;;12.75;11.55;;;18.90;99.90;;;;;;6247006;23;20432;-45
2023/08/28 06:08:07;;;;;;;11.00;9.95;;;19.60;99.90;;;;;;6246225;23;20464;-42
2023/08/28 06:10:38;;;;;;;12.13;9.50;;;20.20;99.90;;;;;;6246091;23;20062;-43
2023/08/28 06:13:04;;;;;;;9.93;8.93;;;20.90;99.90;;;;;;6246770;23;20008;-43
2023/08/28 06:15:30;;;;;;;10.30;9.38;;;21.50;99.90;;;;;;6246547;23;20013;-43
2023/08/28 06:17:55;;;;;;;9.10;8.40;;;21.90;99.90;;;;;;6246638;23;20111;-43
2023/08/28 06:20:22;;;;;;;9.15;8.30;;;22.30;99.90;;;;;;6246269;23;20013;-42
2023/08/28 06:22:48;;;;;;;7.82;7.00;;;22.90;99.90;;;;;;6219232;23;20023;-43
2023/08/28 06:25:13;;;;;;;6.95;6.35;;;22.90;99.90;;;;;;6246516;23;20016;-42
2023/08/28 06:27:39;;;;;;;8.55;5.97;;;23.10;99.90;;;;;;6246530;23;20052;-43
2023/08/28 06:30:06;;;;;;;7.15;6.10;;;23.50;99.90;;;;;;6246495;23;20024;-44
2023/08/28 06:32:32;;;;;;;9.55;6.00;;;23.70;99.90;;;;;;6246516;23;20043;-43
2023/08/28 06:34:58;;;;;;;6.78;5.78;;;24.00;99.90;;;;;;6246395;23;20012;-41
2023/08/28 06:37:24;;;;;;;5.97;5.38;;;24.20;99.90;;;;;;6246354;23;20013;-43
2023/08/28 06:39:54;;;;;;;6.40;5.80;;;24.40;99.90;;;;;;6246142;23;20476;-44
2023/08/28 06:42:19;;;;;;;5.90;5.40;;;24.60;99.90;;;;;;6246289;23;20028;-42
2023/08/28 06:44:45;;;;;;;7.35;5.53;;;24.90;99.90;;;;;;6246417;23;20339;-42
2023/08/28 06:47:11;;;;;;;6.13;5.38;;;25.00;99.90;;;;;;6246449;23;20433;-44
2023/08/28 06:49:36;;;;;;;7.35;4.65;;;25.30;99.90;;;;;;6246320;23;20062;-43
2023/08/28 06:52:04;;;;;;;5.25;4.75;;;25.40;99.90;;;;;;6246603;23;20012;-42
2023/08/28 06:54:29;;;;;;;5.15;4.65;;;25.60;99.90;;;;;;6246013;23;20012;-44
2023/08/28 06:56:55;;;;;;;4.93;4.50;;;25.70;99.90;;;;;;6246424;23;20016;-43
2023/08/28 06:59:21;;;;;;;5.95;4.63;;;25.90;99.90;;;;;;6246338;23;20052;-42
2023/08/28 07:01:46;;;;;;;5.93;3.78;;;26.00;99.90;;;;;;6246295;23;20195;-42
2023/08/28 07:04:12;;;;;;;5.38;4.03;;;25.90;99.90;;;;;;6245779;23;20016;-44
2023/08/28 07:06:38;;;;;;;4.13;3.72;;;26.00;99.90;;;;;;6246114;23;20325;-42
2023/08/28 07:09:04;;;;;;;4.30;3.90;;;26.20;99.90;;;;;;6219421;23;20087;-43
2023/08/28 07:11:29;;;;;;;5.28;4.10;;;26.20;99.90;;;;;;6246528;23;20012;-44
2023/08/28 07:13:55;;;;;;;4.32;3.92;;;26.20;99.90;;;;;;6246110;23;20077;-44
2023/08/28 07:16:20;;;;;;;4.57;3.83;;;26.30;99.90;;;;;;6246169;23;20013;-43
2023/08/28 07:18:46;;;;;;;4.22;3.83;;;26.20;99.90;;;;;;6246252;23;20012;-43
2023/08/28 07:21:12;;;;;;;4.22;3.83;;;26.10;99.90;;;;;;6246157;23;20035;-42
2023/08/28 07:23:38;;;;;;;4.53;3.80;;;25.60;99.90;;;;;;6246224;23;20452;-42
2023/08/28 07:26:03;;;;;;;4.35;3.95;;;24.40;99.90;;;;;;6246247;23;20016;-44
2023/08/28 07:28:30;;;;;;;4.35;4.00;;;23.40;99.90;;;;;;6246079;23;20015;-42
2023/08/28 07:30:57;;;;;;;4.38;3.90;;;22.90;99.90;;;;;;6245940;23;20016;-46
2023/08/28 07:33:23;;;;;;;;;;;22.60;99.90;;;;;;6246594;23;20035;-44
2023/08/28 07:35:49;;;;;;;4.10;3.80;;;22.00;99.90;;;;;;6246180;23;20328;-44
2023/08/28 07:38:15;;;;;;;6.05;3.88;;;21.70;99.90;;;;;;6246111;23;20012;-44
2023/08/28 07:40:41;;;;;;;5.65;4.13;;;21.30;99.90;;;;;;6218807;23;20016;-43
2023/08/28 07:43:07;;;;;;;6.65;3.65;;;;;;;;;;6245846;23;20502;-44
2023/08/28 07:45:32;;;;;;;4.32;3.53;;;20.60;99.90;;;;;;6245780;23;20016;-43
2023/08/28 07:47:59;;;;;;;4.18;3.78;;;20.50;99.90;;;;;;6245939;23;20444;-43
2023/08/28 07:50:28;;;;;;;4.40;3.92;;;20.40;99.90;;;;;;6245783;23;20043;-44
2023/08/28 07:52:54;;;;;;;5.05;4.03;;;20.40;99.90;;;;;;6245866;23;20016;-43
2023/08/28 07:55:19;;;;;;;4.25;3.78;;;20.20;99.90;;;;;;6245983;23;20040;-43
2023/08/28 07:57:45;;;;;;;4.82;4.03;;;20.20;99.90;;;;;;6246198;23;20035;-47
2023/08/28 08:00:13;;;;;;;4.82;3.90;;;20.10;99.90;;;;;;6245835;23;20015;-44
2023/08/28 08:02:40;;;;;;;4.10;3.70;;;20.20;99.90;;;;;;6245547;23;20456;-44
2023/08/28 08:05:07;;;;;;;4.45;3.70;;;20.30;99.90;;;;;;6245317;23;20108;-43
2023/08/28 08:07:33;;;;;;;4.50;3.83;;;20.30;99.90;;;;;;6245707;23;20096;-45
2023/08/28 08:09:58;;;;;;;3.92;3.45;;;20.50;99.90;;;;;;6246248;23;20020;-43
2023/08/28 08:12:26;;;;;;;4.07;3.45;;;20.40;99.90;;;;;;6246116;23;20147;-44
2023/08/28 08:14:52;;;;;;;5.13;3.47;;;20.40;99.90;;;;;;6246060;23;20019;-45
2023/08/28 08:17:18;;;;;;;4.07;3.10;;;20.50;99.90;;;;;;6246108;23;20012;-43
2023/08/28 08:19:43;;;;;;;3.88;2.90;;;20.70;99.90;;;;;;6245500;23;20095;-43
2023/08/28 08:22:09;;;;;;;3.63;2.90;;;20.60;99.90;;;;;;6219217;23;20066;-45
2023/08/28 08:24:35;;;;;;;4.78;3.65;;;20.80;99.90;;;;;;6218947;23;20391;-45
2023/08/28 08:27:00;;;;;;;3.28;2.97;;;20.80;99.90;;;;;;6246053;23;20020;-43
2023/08/28 08:29:26;;;;;;;3.85;2.83;;;20.90;99.90;;;;;;6246177;23;20049;-43
2023/08/28 08:31:52;;;;;;;3.22;2.40;;;20.90;99.90;;;;;;6246047;23;20019;-44
2023/08/28 08:34:20;;;;;;;3.50;3.20;;;20.80;99.90;;;;;;6218913;23;20042;-45
2023/08/28 08:36:46;;;;;;;3.58;2.60;;;20.80;99.90;;;;;;6245977;23;20012;-43
2023/08/28 08:39:11;;;;;;;4.88;3.55;;;20.70;99.90;;;;;;6218913;23;20066;-46
2023/08/28 08:41:39;;;;;;;3.28;2.85;;;20.80;99.90;;;;;;6245926;23;20018;-45
2023/08/28 08:44:05;;;;;;;2.28;2.00;;;21.00;99.90;;;;;;6247376;23;20016;-45
2023/08/28 08:46:33;;;;;;;3.00;2.08;;;20.80;99.90;;;;;;6220909;23;20467;-44
2023/08/28 08:49:00;;;;;;;2.63;1.27;;;20.70;99.90;;;;;;6247899;22;20368;-44
2023/08/28 08:51:29;;;;;;;;;;;20.90;99.90;;;;;;6246524;23;20016;-46
2023/08/28 08:54:09;;;;;;;2.38;1.58;;;21.00;99.90;;;;;;6247724;23;19927;-45
2023/08/28 08:56:37;;;;;;;2.83;1.77;;;20.90;99.90;;;;;;6247937;22;20026;-45
2023/08/28 08:59:03;;;;;;;2.85;2.00;;;21.10;99.90;;;;;;6247158;22;20479;-46
2023/08/28 09:01:31;;;;;;;2.53;1.88;;;21.30;99.90;;;;;;6247655;23;20008;-43
2023/08/28 09:03:58;;;;;;;2.13;1.92;;;21.40;99.90;;;;;;6247300;22;20016;-46
2023/08/28 09:06:29;;;;;;;3.80;1.98;;;21.70;99.90;;;;;;6245766;23;20035;-44
2023/08/28 09:08:55;;;;;;;3.28;1.52;;;22.00;99.90;;;;;;6246027;23;20065;-46
2023/08/28 09:11:21;;;;;;;3.58;1.30;;;21.50;99.90;;;;;;6247506;23;20111;-45
2023/08/28 09:13:47;;;;;;;4.55;1.35;;;21.70;99.90;;;;;;6247189;23;20020;-43
2023/08/28 09:16:12;;;;;;;2.28;1.15;;;21.70;99.90;;;;;;6247501;23;20467;-44
2023/08/28 09:18:38;;;;;;;2.65;1.20;;;21.80;99.90;;;;;;6247551;23;20039;-45
2023/08/28 09:21:11;;;;;;;3.95;1.25;;;21.70;99.90;;;;;;6247603;23;20444;-44
2023/08/28 09:23:45;;;;;;;2.15;0.95;;;22.00;99.90;;;;;;6247010;23;20026;-44
2023/08/28 09:26:21;;;;;;;3.65;1.10;;;22.10;99.90;;;;;;6247247;23;20020;-45
2023/08/28 09:28:59;;;;;;;2.97;1.25;;;22.10;99.90;;;;;;6247376;23;20016;-45
2023/08/28 09:31:32;;;;;;;2.30;1.10;;;22.50;99.90;;;;;;6247046;23;20344;-44
2023/08/28 09:33:58;;;;;;;2.42;1.13;;;22.40;99.90;;;;;;6220088;23;20038;-45
2023/08/28 09:36:25;;;;;;;1.95;1.20;;;22.50;99.90;;;;;;6247498;22;20074;-45
2023/08/28 09:38:51;;;;;;;2.67;1.30;;;22.50;99.90;;;;;;6247239;22;20028;-51
2023/08/28 09:41:17;;;;;;;2.55;1.05;;;22.60;99.90;;;;;;6246977;22;20043;-44
2023/08/28 09:43:43;;;;;;;2.85;1.10;;;22.70;99.90;;;;;;6247092;22;20020;-45
2023/08/28 09:46:08;;;;;;;1.98;0.90;;;22.60;99.90;;;;;;6247259;23;20012;-43
2023/08/28 09:48:35;;;;;;;2.05;1.27;;;22.50;99.90;;;;;;6247206;23;20335;-44
2023/08/28 09:51:06;;;;;;;4.28;0.98;;;22.60;99.90;;;;;;6246882;22;20440;-47
2023/08/28 09:53:33;;;;;;;2.10;1.10;;;22.90;99.90;;;;;;6245493;23;20059;-43
2023/08/28 09:55:59;;;;;;;2.25;1.23;;;22.90;99.90;;;;;;6246648;22;20435;-43
2023/08/28 09:58:27;;;;;;;2.25;1.05;;;22.80;99.90;;;;;;6247287;22;20482;-44
2023/08/28 10:00:55;;;;;;;1.27;0.80;;;22.70;99.90;;;;;;6247081;22;20083;-44
2023/08/28 10:03:21;;;;;;;;;;;22.80;99.90;;;;;;6247483;22;20015;-47
2023/08/28 10:05:48;;;;;;;1.80;0.80;;;22.60;99.90;;;;;;6247075;22;19911;-45
2023/08/28 10:08:15;;;;;;;2.17;1.00;;;22.70;99.90;;;;;;6246619;23;20508;-44
2023/08/28 10:10:45;;;;;;;1.30;0.80;;;22.70;99.90;;;;;;6246630;23;20715;-45
2023/08/28 10:13:14;;;;;;;3.45;1.20;;;22.60;99.90;;;;;;6247111;23;20034;-44
2023/08/28 10:16:10;;;;;;;1.50;0.80;;;22.80;99.90;;;;;;6246913;23;20013;-45
2023/08/28 10:18:51;;;;;;;2.08;0.60;;;22.60;99.90;;;;;;6214931;23;20050;-45
2023/08/28 10:21:17;;;;;;;1.35;0.70;;;23.00;99.90;;;;;;6246307;23;20023;-44
2023/08/28 10:23:44;;;;;;;2.22;0.75;;;23.10;99.90;;;;;;6246720;23;20072;-44
2023/08/28 10:26:13;;;;;;;;;;;22.90;99.90;;;;;;6247323;23;20012;-46
2023/08/28 10:28:39;;;;;;;2.42;0.70;;;23.00;99.90;;;;;;6246707;23;19927;-44
2023/08/28 10:31:07;;;;;;;1.58;0.60;;;22.90;99.90;;;;;;6219776;23;20467;-44
2023/08/28 10:33:34;;;;;;;1.33;0.85;;;22.80;99.90;;;;;;6246801;23;20012;-45
2023/08/28 10:36:01;;;;;;;1.17;0.70;;;22.90;99.90;;;;;;6246702;23;20020;-45
2023/08/28 10:38:27;;;;;;;4.00;0.87;;;22.90;99.90;;;;;;6246366;23;20506;-44
2023/08/28 10:40:56;;;;;;;2.97;0.80;;;22.80;99.90;;;;;;6246757;23;20012;-44
2023/08/28 10:43:23;;;;;;;1.38;0.70;;;22.70;99.90;;;;;;6246510;23;20372;-46
2023/08/28 10:45:52;;;;;;;1.90;0.80;;;22.60;99.90;;;;;;6219653;23;20016;-43
2023/08/28 10:48:17;;;;;;;1.88;0.68;;;22.50;99.90;;;;;;6246103;23;20083;-44
2023/08/28 10:50:44;;;;;;;2.10;0.65;;;22.20;99.90;;;;;;6246679;23;20043;-45
2023/08/28 10:53:16;;;;;;;1.48;0.50;;;22.00;99.90;;;;;;6219581;23;20012;-46
2023/08/28 10:55:53;;;;;;;1.48;0.65;;;21.80;99.90;;;;;;6246379;23;20333;-44
2023/08/28 10:58:19;;;;;;;2.53;0.98;;;;;;;;;;6246518;23;20012;-45
2023/08/28 11:00:45;;;;;;;1.65;0.85;;;21.30;99.90;;;;;;6246350;23;20016;-43
2023/08/28 11:03:18;;;;;;;2.28;1.25;;;21.30;99.90;;;;;;6219347;23;20083;-46
2023/08/28 11:05:44;;;;;;;2.20;0.98;;;21.10;99.90;;;;;;6246227;23;20445;-45
2023/08/28 11:08:13;;;;;;;3.40;0.90;;;21.20;99.90;;;;;;6219349;23;20016;-44
2023/08/28 11:10:49;;;;;;;1.02;0.88;;;21.10;99.90;;;;;;6246481;23;20012;-43
2023/08/28 11:13:23;;;;;;;2.38;1.05;;;21.30;99.90;;;;;;6246011;23;20087;-43
2023/08/28 11:15:51;;;;;;;1.60;0.80;;;21.30;99.90;;;;;;6246192;23;20016;-45
2023/08/28 11:18:19;;;;;;;;;;;21.20;99.90;;;;;;6246808;23;20027;-45
2023/08/28 11:21:00;;;;;;;1.45;0.80;;;21.20;99.90;;;;;;6246171;23;20013;-45
2023/08/28 11:23:33;;;;;;;1.02;0.70;;;21.20;99.90;;;;;;6246381;23;20094;-44
2023/08/28 11:26:17;;;;;;;2.97;0.80;;;21.20;99.90;;;;;;6219591;23;20373;-42
2023/08/28 11:28:47;;;;;;;2.10;0.85;;;21.60;99.90;;;;;;6246294;23;20059;-44
2023/08/28 11:31:14;;;;;;;1.52;0.90;;;21.90;99.90;;;;;;6245712;23;20453;-46
2023/08/28 11:33:44;;;;;;;1.92;1.00;;;22.10;99.90;;;;;;6245891;23;20527;-44
2023/08/28 11:36:14;;;;;;;2.25;0.98;;;22.30;99.90;;;;;;6246082;23;20016;-43
2023/08/28 11:38:41;;;;;;;2.25;1.20;;;22.50;99.90;;;;;;6245919;23;20020;-46
2023/08/28 11:41:10;;;;;;;2.63;0.98;;;22.60;99.90;;;;;;6246255;23;20062;-43
2023/08/28 11:43:41;;;;;;;4.05;1.40;;;22.80;99.90;;;;;;6245842;23;20460;-43
2023/08/28 11:46:08;;;;;;;3.13;1.58;;;22.80;99.90;;;;;;6246179;23;20012;-45
2023/08/28 11:48:38;;;;;;;2.20;0.90;;;22.80;99.90;;;;;;6246445;23;20314;-44
2023/08/28 11:51:05;;;;;;;3.47;1.10;;;22.90;99.90;;;;;;6246306;23;20018;-43
2023/08/28 11:53:37;;;;;;;1.75;0.88;;;23.00;99.90;;;;;;6219796;23;20019;-46
2023/08/28 11:56:05;;;;;;;1.73;0.82;;;23.00;99.90;;;;;;6246030;23;20013;-43
2023/08/28 11:58:32;;;;;;;0.70;0.60;;;23.10;99.90;;;;;;6246153;22;20658;-43
2023/08/28 12:01:00;;;;;;;1.40;0.80;;;22.90;99.90;;;;;;6246097;22;20016;-46
2023/08/28 12:03:27;;;;;;;1.75;0.60;;;23.10;99.90;;;;;;6245861;22;20019;-43
2023/08/28 12:06:07;;;;;;;2.10;0.68;;;23.20;99.90;;;;;;6218988;23;20463;-44
2023/08/28 12:08:38;;;;;;;1.38;0.60;;;23.40;99.90;;;;;;6246131;22;20020;-44
2023/08/28 12:11:08;;;;;;;1.67;0.57;;;23.20;99.90;;;;;;6244772;23;20020;-44
2023/08/28 12:13:35;;;;;;;0.98;0.70;;;23.40;99.90;;;;;;6246041;22;20071;-45
2023/08/28 12:16:08;;;;;;;0.80;0.52;;;23.40;99.90;;;;;;6244089;23;20019;-44
2023/08/28 12:19:03;;;;;;;1.33;0.70;;;22.90;99.90;;;;;;6247161;22;20037;-44
2023/08/28 12:21:36;;;;;;;1.02;0.60;;;23.10;99.90;;;;;;6215073;23;20514;-43
2023/08/28 12:24:02;;;;;;;2.78;0.85;;;23.20;99.90;;;;;;6248078;22;20375;-46
2023/08/28 12:26:30;;;;;;;1.77;0.88;;;23.30;99.90;;;;;;6247696;22;20024;-43
2023/08/28 12:28:57;;;;;;;2.38;0.60;;;23.30;99.90;;;;;;6247902;23;20016;-43
2023/08/28 12:31:31;;;;;;;1.10;0.70;;;23.30;99.90;;;;;;6248061;22;20067;-42
2023/08/28 12:33:57;;;;;;;3.15;0.60;;;23.40;99.90;;;;;;6248250;22;20016;-43
2023/08/28 12:36:45;;;;;;;3.55;1.05;;;23.70;99.90;;;;;;6247620;22;20026;-42
2023/08/28 12:39:21;;;;;;;2.63;0.63;;;23.80;99.90;;;;;;6248101;22;20012;-45
2023/08/28 12:41:54;;;;;;;3.42;0.60;;;23.90;99.90;;;;;;6247630;22;20478;-42
2023/08/28 12:44:21;;;;;;;3.15;0.88;;;23.90;99.90;;;;;;6247886;22;20352;-44
2023/08/28 12:46:48;;;;;;;1.35;0.60;;;24.00;99.90;;;;;;6248003;22;20139;-44
2023/08/28 12:49:16;;;;;;;3.00;1.13;;;23.80;99.90;;;;;;6247798;22;20012;-44
2023/08/28 12:51:43;;;;;;;0.90;0.52;;;23.70;99.90;;;;;;6247996;22;20024;-45
2023/08/28 12:54:12;;;;;;;1.60;0.70;;;23.60;99.90;;;;;;6247704;22;20016;-43
2023/08/28 12:56:38;;;;;;;1.58;0.50;;;23.60;99.90;;;;;;6247710;22;20026;-43
2023/08/28 12:59:05;;;;;;;1.08;0.60;;;23.70;99.90;;;;;;6247475;23;20012;-45
2023/08/28 13:01:31;;;;;;;2.10;1.00;;;23.80;99.90;;;;;;6247713;23;20016;-43
2023/08/28 13:03:56;;;;;;;1.83;0.60;;;23.30;99.90;;;;;;6247279;23;20368;-43
2023/08/28 13:06:25;;;;;;;2.42;0.73;;;23.20;99.90;;;;;;6247516;23;20024;-48
2023/08/28 13:08:51;;;;;;;1.65;0.63;;;;;;;;;;6247587;23;20083;-45
2023/08/28 13:11:20;;;;;;;3.00;1.00;;;23.00;99.90;;;;;;6247493;23;20380;-43